createdAt,value
2016-11-08T00:00:16.789Z,0
2016-11-08T00:01:16.799Z,0
2016-11-08T00:02:16.815Z,0
2016-11-08T00:03:16.836Z,0
2016-11-08T00:04:16.856Z,0
2016-11-08T00:05:16.869Z,0
2016-11-08T00:07:16.909Z,0
2016-11-08T00:08:31.851Z,0
2016-11-08T00:09:16.939Z,0
2016-11-08T00:10:16.956Z,0
2016-11-08T00:11:16.979Z,0
2016-11-08T00:12:16.998Z,0
2016-11-08T00:14:17.028Z,0
2016-11-08T00:15:17.048Z,0
2016-11-08T00:16:17.064Z,0
2016-11-08T00:17:17.075Z,0
2016-11-08T00:18:17.103Z,0
2016-11-08T00:19:32.041Z,0
2016-11-08T00:20:17.128Z,0
2016-11-08T00:21:17.147Z,0
2016-11-08T00:22:17.424Z,0
2016-11-08T00:23:17.200Z,0
2016-11-08T00:24:18.104Z,0
2016-11-08T00:25:17.214Z,0
2016-11-08T00:26:17.236Z,0
2016-11-08T00:27:17.250Z,0
2016-11-08T00:28:17.278Z,0
2016-11-08T00:29:17.288Z,0
2016-11-08T00:30:17.299Z,0
2016-11-08T00:31:17.314Z,0
2016-11-08T00:32:17.341Z,0
2016-11-08T00:33:17.355Z,0
2016-11-08T00:34:17.373Z,0
2016-11-08T00:35:32.311Z,0
2016-11-08T00:36:32.328Z,0
2016-11-08T00:37:17.427Z,0
2016-11-08T00:40:17.473Z,0
2016-11-08T00:41:32.410Z,0
2016-11-08T00:42:17.513Z,0
2016-11-08T00:43:17.529Z,0
2016-11-08T00:44:17.551Z,0
2016-11-08T00:45:17.563Z,0
2016-11-08T00:46:17.581Z,0
2016-11-08T00:47:32.523Z,0
2016-11-08T00:48:17.611Z,0
2016-11-08T00:49:17.630Z,0
2016-11-08T00:50:17.653Z,0
2016-11-08T00:51:17.665Z,0
2016-11-08T00:52:17.678Z,0
2016-11-08T00:53:17.705Z,0
2016-11-08T00:54:32.637Z,0
2016-11-08T00:55:17.740Z,0
2016-11-08T00:56:17.759Z,0
2016-11-08T00:57:17.771Z,0
2016-11-08T00:58:17.793Z,0
2016-11-08T01:00:17.815Z,0
2016-11-08T01:01:17.876Z,0
2016-11-08T01:03:17.872Z,0
2016-11-08T01:04:17.893Z,0
2016-11-08T01:05:17.915Z,0
2016-11-08T01:06:32.844Z,0
2016-11-08T01:07:17.938Z,0
2016-11-08T01:08:17.952Z,0
2016-11-08T01:09:17.982Z,0
2016-11-08T01:10:32.913Z,0
2016-11-08T01:11:18.011Z,0
2016-11-08T01:12:18.028Z,0
2016-11-08T01:13:18.046Z,0
2016-11-08T01:14:18.059Z,0
2016-11-08T01:15:18.109Z,0
2016-11-08T01:17:18.110Z,0
2016-11-08T01:18:18.133Z,0
2016-11-08T01:19:18.145Z,0
2016-11-08T01:20:33.121Z,0
2016-11-08T01:21:18.223Z,0
2016-11-08T01:22:18.192Z,0
2016-11-08T01:23:18.211Z,0
2016-11-08T01:24:18.234Z,0
2016-11-08T01:25:18.275Z,0
2016-11-08T01:28:18.300Z,0
2016-11-08T01:30:18.344Z,0
2016-11-08T01:31:18.354Z,0
2016-11-08T01:32:18.403Z,0
2016-11-08T01:33:18.387Z,0
2016-11-08T01:34:18.399Z,0
2016-11-08T01:35:18.420Z,0
2016-11-08T01:36:18.432Z,0
2016-11-08T01:37:18.456Z,0
2016-11-08T01:38:18.472Z,0
2016-11-08T01:39:18.482Z,0
2016-11-08T01:40:18.512Z,0
2016-11-08T01:41:33.443Z,0
2016-11-08T01:42:18.544Z,0
2016-11-08T01:43:18.551Z,0
2016-11-08T01:45:18.629Z,0
2016-11-08T01:46:18.606Z,0
2016-11-08T01:47:18.620Z,0
2016-11-08T01:48:18.636Z,0
2016-11-08T01:50:18.670Z,0
2016-11-08T01:51:18.691Z,0
2016-11-08T01:52:18.963Z,0
2016-11-08T01:53:18.725Z,0
2016-11-08T01:54:33.666Z,0
2016-11-08T01:55:33.679Z,0
2016-11-08T01:56:18.771Z,0
2016-11-08T01:57:18.794Z,0
2016-11-08T01:59:18.824Z,0
2016-11-08T02:00:18.845Z,0
2016-11-08T02:01:18.854Z,0
2016-11-08T02:02:18.871Z,0
2016-11-08T02:03:33.821Z,0
2016-11-08T02:04:18.910Z,0
2016-11-08T02:05:18.938Z,0
2016-11-08T02:06:18.938Z,0
2016-11-08T02:07:18.963Z,0
2016-11-08T02:08:18.981Z,0
2016-11-08T02:09:19.028Z,0
2016-11-08T02:10:33.931Z,0
2016-11-08T02:11:19.060Z,0
2016-11-08T02:12:19.049Z,0
2016-11-08T02:13:33.985Z,0
2016-11-08T02:14:19.077Z,0
2016-11-08T02:15:19.303Z,0
2016-11-08T02:16:19.158Z,0
2016-11-08T02:17:19.172Z,0
2016-11-08T02:18:19.394Z,0
2016-11-08T02:19:34.089Z,0
2016-11-08T02:22:34.136Z,0
2016-11-08T02:24:19.252Z,0
2016-11-08T02:25:19.260Z,0
2016-11-08T02:26:19.288Z,0
2016-11-08T02:27:19.302Z,0
2016-11-08T02:28:34.238Z,0
2016-11-08T02:29:34.255Z,0
2016-11-08T02:30:19.352Z,0
2016-11-08T02:31:19.368Z,0
2016-11-08T02:32:19.386Z,0
2016-11-08T02:35:19.429Z,0
2016-11-08T02:37:19.469Z,0
2016-11-08T02:38:19.482Z,0
2016-11-08T02:39:19.500Z,0
2016-11-08T02:40:19.521Z,0
2016-11-08T02:41:34.460Z,0
2016-11-08T02:42:19.544Z,0
2016-11-08T02:43:19.598Z,0
2016-11-08T02:44:19.585Z,0
2016-11-08T02:45:34.527Z,0
2016-11-08T02:46:19.618Z,0
2016-11-08T02:47:19.630Z,0
2016-11-08T02:49:19.672Z,0
2016-11-08T02:50:19.689Z,0
2016-11-08T02:51:19.713Z,0
2016-11-08T02:52:20.025Z,0
2016-11-08T02:53:19.990Z,0
2016-11-08T02:54:19.748Z,0
2016-11-08T02:55:19.768Z,0
2016-11-08T02:56:34.709Z,0
2016-11-08T02:57:19.810Z,0
2016-11-08T02:58:34.740Z,0
2016-11-08T02:59:34.755Z,0
2016-11-08T03:01:34.788Z,0
2016-11-08T03:02:19.888Z,0
2016-11-08T03:03:19.900Z,0
2016-11-08T03:04:19.917Z,0
2016-11-08T03:05:19.940Z,0
2016-11-08T03:06:19.955Z,0
2016-11-08T03:07:19.968Z,0
2016-11-08T03:08:20.024Z,0
2016-11-08T03:09:20.009Z,0
2016-11-08T03:10:20.026Z,0
2016-11-08T03:11:20.063Z,0
2016-11-08T03:12:20.057Z,0
2016-11-08T03:13:20.070Z,0
2016-11-08T03:14:20.091Z,0
2016-11-08T03:15:20.105Z,0
2016-11-08T03:16:35.048Z,0
2016-11-08T03:17:20.139Z,0
2016-11-08T03:18:20.155Z,0
2016-11-08T03:19:20.175Z,0
2016-11-08T03:20:20.186Z,0
2016-11-08T03:22:20.222Z,0
2016-11-08T03:23:20.237Z,0
2016-11-08T03:24:20.262Z,0
2016-11-08T03:26:20.292Z,0
2016-11-08T03:27:35.229Z,0
2016-11-08T03:28:20.328Z,0
2016-11-08T03:29:35.259Z,0
2016-11-08T03:30:20.358Z,0
2016-11-08T03:31:20.376Z,0
2016-11-08T03:32:20.394Z,0
2016-11-08T03:33:35.576Z,0
2016-11-08T03:35:20.439Z,0
2016-11-08T03:37:20.470Z,0
2016-11-08T03:38:20.491Z,0
2016-11-08T03:39:20.503Z,0
2016-11-08T03:40:20.528Z,0
2016-11-08T03:41:20.537Z,0
2016-11-08T03:42:20.557Z,0
2016-11-08T03:43:20.575Z,0
2016-11-08T03:44:35.511Z,0
2016-11-08T03:45:35.531Z,0
2016-11-08T03:46:20.630Z,0
2016-11-08T03:47:20.640Z,0
2016-11-08T03:48:35.581Z,0
2016-11-08T03:49:20.686Z,0
2016-11-08T03:50:20.691Z,0
2016-11-08T03:51:21.211Z,0
2016-11-08T03:52:20.720Z,0
2016-11-08T03:53:20.738Z,0
2016-11-08T03:54:20.752Z,0
2016-11-08T03:55:20.770Z,0
2016-11-08T03:56:20.786Z,0
2016-11-08T03:58:20.822Z,0
2016-11-08T03:59:20.838Z,0
2016-11-08T04:00:20.867Z,0
2016-11-08T04:01:20.880Z,0
2016-11-08T04:02:20.889Z,0
2016-11-08T04:03:20.910Z,0
2016-11-08T04:05:20.940Z,0
2016-11-08T04:06:20.956Z,0
2016-11-08T04:07:20.995Z,0
2016-11-08T04:08:20.988Z,0
2016-11-08T04:09:21.013Z,0
2016-11-08T04:10:21.022Z,0
2016-11-08T04:12:21.058Z,0
2016-11-08T04:13:21.067Z,0
2016-11-08T04:14:21.093Z,0
2016-11-08T04:15:21.107Z,0
2016-11-08T04:16:36.047Z,0
2016-11-08T04:17:21.134Z,0
2016-11-08T04:18:36.077Z,0
2016-11-08T04:19:21.175Z,0
2016-11-08T04:20:36.112Z,0
2016-11-08T04:21:21.204Z,0
2016-11-08T04:22:21.230Z,0
2016-11-08T04:24:21.257Z,0
2016-11-08T04:25:21.279Z,0
2016-11-08T04:26:21.442Z,0
2016-11-08T04:27:21.301Z,0
2016-11-08T04:28:21.319Z,0
2016-11-08T04:29:21.339Z,0
2016-11-08T04:30:21.356Z,0
2016-11-08T04:31:36.295Z,0
2016-11-08T04:32:21.387Z,0
2016-11-08T04:33:21.405Z,0
2016-11-08T04:34:21.428Z,0
2016-11-08T04:35:21.435Z,0
2016-11-08T04:36:36.378Z,0
2016-11-08T04:38:21.496Z,0
2016-11-08T04:39:21.502Z,0
2016-11-08T04:40:21.533Z,0
2016-11-08T04:41:21.552Z,0
2016-11-08T04:42:21.561Z,0
2016-11-08T04:43:21.574Z,0
2016-11-08T04:44:21.592Z,0
2016-11-08T04:45:21.609Z,0
2016-11-08T04:46:21.622Z,0
2016-11-08T04:47:21.640Z,0
2016-11-08T04:48:36.577Z,0
2016-11-08T04:49:21.674Z,0
2016-11-08T04:50:21.702Z,0
2016-11-08T04:52:21.730Z,0
2016-11-08T04:53:21.746Z,0
2016-11-08T04:54:21.759Z,0
2016-11-08T04:55:21.775Z,0
2016-11-08T04:56:21.794Z,0
2016-11-08T04:58:21.822Z,0
2016-11-08T04:59:21.834Z,0
2016-11-08T05:00:21.886Z,0
2016-11-08T05:01:21.872Z,0
2016-11-08T05:02:21.894Z,0
2016-11-08T05:03:21.903Z,0
2016-11-08T05:04:21.916Z,0
2016-11-08T05:05:21.941Z,0
2016-11-08T05:06:22.278Z,0
2016-11-08T05:07:21.971Z,0
2016-11-08T05:08:21.987Z,0
2016-11-08T05:09:22.012Z,0
2016-11-08T05:11:22.036Z,0
2016-11-08T05:12:22.057Z,0
2016-11-08T05:13:22.075Z,0
2016-11-08T05:14:22.088Z,0
2016-11-08T05:15:22.106Z,0
2016-11-08T05:16:22.122Z,0
2016-11-08T05:17:22.138Z,0
2016-11-08T05:18:22.187Z,0
2016-11-08T05:19:22.173Z,0
2016-11-08T05:20:22.191Z,0
2016-11-08T05:21:22.206Z,0
2016-11-08T05:22:22.227Z,0
2016-11-08T05:23:37.154Z,0
2016-11-08T05:24:22.703Z,0
2016-11-08T05:25:22.275Z,0
2016-11-08T05:26:37.512Z,0
2016-11-08T05:27:22.307Z,0
2016-11-08T05:28:22.324Z,0
2016-11-08T05:29:22.341Z,0
2016-11-08T05:30:22.356Z,0
2016-11-08T05:31:22.373Z,0
2016-11-08T05:32:22.385Z,0
2016-11-08T05:33:22.443Z,0
2016-11-08T05:34:22.429Z,0
2016-11-08T05:35:22.436Z,0
2016-11-08T05:36:37.382Z,0
2016-11-08T05:37:22.469Z,0
2016-11-08T05:38:22.487Z,0
2016-11-08T05:39:37.435Z,0
2016-11-08T05:40:22.539Z,0
2016-11-08T05:41:22.554Z,0
2016-11-08T05:42:22.568Z,0
2016-11-08T05:43:22.585Z,0
2016-11-08T05:44:22.612Z,0
2016-11-08T05:45:22.611Z,0
2016-11-08T05:46:22.619Z,0
2016-11-08T05:47:22.637Z,0
2016-11-08T05:48:22.649Z,0
2016-11-08T05:49:22.666Z,4
2016-11-08T05:50:23.196Z,4
2016-11-08T05:51:22.700Z,0
2016-11-08T05:52:22.726Z,4
2016-11-08T05:53:22.737Z,4
2016-11-08T05:55:37.693Z,4
2016-11-08T05:56:37.706Z,8
2016-11-08T05:57:22.833Z,4
2016-11-08T05:58:22.830Z,8
2016-11-08T05:59:22.842Z,4
2016-11-08T06:00:22.847Z,8
2016-11-08T06:01:23.131Z,8
2016-11-08T06:02:22.885Z,8
2016-11-08T06:03:22.912Z,12
2016-11-08T06:04:22.919Z,8
2016-11-08T06:05:22.941Z,8
2016-11-08T06:06:22.953Z,12
2016-11-08T06:07:22.967Z,16
2016-11-08T06:08:22.988Z,16
2016-11-08T06:09:37.923Z,16
2016-11-08T06:10:23.021Z,20
2016-11-08T06:11:37.960Z,24
2016-11-08T06:12:23.058Z,24
2016-11-08T06:13:23.067Z,24
2016-11-08T06:14:23.086Z,28
2016-11-08T06:15:23.109Z,28
2016-11-08T06:16:23.170Z,36
2016-11-08T06:17:23.157Z,36
2016-11-08T06:18:23.145Z,36
2016-11-08T06:19:23.194Z,44
2016-11-08T06:20:23.564Z,40
2016-11-08T06:21:23.199Z,40
2016-11-08T06:22:23.225Z,44
2016-11-08T06:24:23.250Z,48
2016-11-08T06:25:23.296Z,56
2016-11-08T06:26:38.210Z,68
2016-11-08T06:27:23.300Z,72
2016-11-08T06:28:38.238Z,72
2016-11-08T06:29:23.334Z,80
2016-11-08T06:30:23.348Z,88
2016-11-08T06:31:23.377Z,92
2016-11-08T06:32:23.379Z,92
2016-11-08T06:33:23.406Z,92
2016-11-08T06:34:23.418Z,96
2016-11-08T06:35:23.433Z,100
2016-11-08T06:36:23.448Z,104
2016-11-08T06:37:23.475Z,112
2016-11-08T06:38:23.489Z,112
2016-11-08T06:39:23.504Z,108
2016-11-08T06:40:23.521Z,104
2016-11-08T06:42:23.554Z,108
2016-11-08T06:43:38.484Z,108
2016-11-08T06:44:23.580Z,104
2016-11-08T06:45:23.606Z,104
2016-11-08T06:47:23.632Z,104
2016-11-08T06:48:23.658Z,100
2016-11-08T06:50:23.692Z,120
2016-11-08T06:51:23.705Z,128
2016-11-08T06:52:38.642Z,144
2016-11-08T06:53:23.739Z,152
2016-11-08T06:54:23.762Z,172
2016-11-08T06:55:23.766Z,188
2016-11-08T06:56:38.709Z,200
2016-11-08T06:57:23.830Z,204
2016-11-08T06:58:38.747Z,228
2016-11-08T06:59:23.844Z,236
2016-11-08T07:00:23.864Z,244
2016-11-08T07:01:23.897Z,248
2016-11-08T07:02:23.887Z,260
2016-11-08T07:03:23.904Z,260
2016-11-08T07:04:23.922Z,256
2016-11-08T07:05:23.934Z,248
2016-11-08T07:06:23.959Z,240
2016-11-08T07:08:23.984Z,240
2016-11-08T07:10:24.018Z,264
2016-11-08T07:11:24.035Z,296
2016-11-08T07:13:24.076Z,352
2016-11-08T07:14:39.017Z,364
2016-11-08T07:15:24.259Z,360
2016-11-08T07:16:24.143Z,348
2016-11-08T07:17:24.142Z,360
2016-11-08T07:18:24.152Z,368
2016-11-08T07:19:39.101Z,416
2016-11-08T07:20:24.184Z,444
2016-11-08T07:21:24.208Z,492
2016-11-08T07:22:24.218Z,552
2016-11-08T07:23:24.241Z,592
2016-11-08T07:24:24.256Z,576
2016-11-08T07:25:24.273Z,596
2016-11-08T07:26:39.244Z,644
2016-11-08T07:27:24.305Z,668
2016-11-08T07:28:24.330Z,680
2016-11-08T07:29:24.346Z,648
2016-11-08T07:30:39.287Z,688
2016-11-08T07:31:24.374Z,696
2016-11-08T07:32:24.392Z,728
2016-11-08T07:33:39.342Z,800
2016-11-08T07:34:24.429Z,852
2016-11-08T07:35:24.442Z,888
2016-11-08T07:36:24.455Z,900
2016-11-08T07:37:24.485Z,948
2016-11-08T07:38:24.494Z,968
2016-11-08T07:39:24.504Z,960
2016-11-08T07:40:24.564Z,972
2016-11-08T07:42:24.567Z,952
2016-11-08T07:43:39.500Z,932
2016-11-08T07:44:24.597Z,916
2016-11-08T07:45:39.530Z,928
2016-11-08T07:47:24.657Z,940
2016-11-08T07:48:24.671Z,952
2016-11-08T07:49:24.687Z,932
2016-11-08T07:50:24.700Z,916
2016-11-08T07:52:24.731Z,1012
2016-11-08T07:53:24.786Z,1000
2016-11-08T07:54:24.774Z,1048
2016-11-08T07:55:24.782Z,1068
2016-11-08T07:56:24.804Z,1088
2016-11-08T07:57:24.817Z,1032
2016-11-08T07:58:39.759Z,1052
2016-11-08T07:59:24.856Z,1032
2016-11-08T08:00:24.873Z,1028
2016-11-08T08:01:39.814Z,1080
2016-11-08T08:02:39.825Z,1148
2016-11-08T08:03:25.224Z,1168
2016-11-08T08:04:24.942Z,1220
2016-11-08T08:05:39.885Z,1220
2016-11-08T08:07:25.321Z,1244
2016-11-08T08:08:25.010Z,1268
2016-11-08T08:10:25.495Z,1288
2016-11-08T08:11:25.059Z,1296
2016-11-08T08:12:25.379Z,1316
2016-11-08T08:13:25.103Z,1324
2016-11-08T08:14:40.029Z,1388
2016-11-08T08:15:25.137Z,1364
2016-11-08T08:16:40.062Z,1408
2016-11-08T08:17:25.163Z,1436
2016-11-08T08:18:25.183Z,1380
2016-11-08T08:19:25.197Z,1376
2016-11-08T08:20:25.209Z,1372
2016-11-08T08:21:25.332Z,1328
2016-11-08T08:22:25.250Z,1288
2016-11-08T08:23:25.262Z,1268
2016-11-08T08:24:26.686Z,1264
2016-11-08T08:25:25.297Z,1284
2016-11-08T08:26:26.057Z,1228
2016-11-08T08:27:25.578Z,1236
2016-11-08T08:28:25.807Z,1204
2016-11-08T08:29:25.362Z,1208
2016-11-08T08:31:25.799Z,1084
2016-11-08T08:32:40.788Z,1044
2016-11-08T08:34:26.760Z,1108
2016-11-08T08:35:25.584Z,1112
2016-11-08T08:36:26.083Z,1176
2016-11-08T08:37:28.862Z,1136
2016-11-08T08:38:25.772Z,1128
2016-11-08T08:40:25.760Z,1132
2016-11-08T08:41:40.596Z,1148
2016-11-08T08:42:26.546Z,1192
2016-11-08T08:43:26.607Z,1180
2016-11-08T08:44:25.668Z,1196
2016-11-08T08:45:25.892Z,1240
2016-11-08T08:46:27.706Z,1308
2016-11-08T08:47:25.979Z,1312
2016-11-08T08:48:25.734Z,1316
2016-11-08T08:49:42.639Z,1288
2016-11-08T08:50:44.103Z,1292
2016-11-08T08:51:27.645Z,1260
2016-11-08T08:52:25.818Z,1304
2016-11-08T08:53:26.334Z,1368
2016-11-08T08:54:45.308Z,1472
2016-11-08T08:55:26.364Z,1464
2016-11-08T08:56:26.085Z,1532
2016-11-08T08:57:25.857Z,1464
2016-11-08T08:58:26.481Z,1444
2016-11-08T08:59:27.064Z,1412
2016-11-08T09:00:25.978Z,1388
2016-11-08T09:01:26.049Z,1512
2016-11-08T09:02:26.065Z,1608
2016-11-08T09:03:40.947Z,1556
2016-11-08T09:04:28.812Z,1604
2016-11-08T09:05:41.527Z,1692
2016-11-08T09:06:26.791Z,1744
2016-11-08T09:07:28.839Z,1956
2016-11-08T09:08:26.472Z,2028
2016-11-08T09:10:26.938Z,1952
2016-11-08T09:11:26.582Z,2032
2016-11-08T09:12:26.439Z,2000
2016-11-08T09:13:27.855Z,1896
2016-11-08T09:14:26.568Z,1776
2016-11-08T09:15:26.720Z,1756
2016-11-08T09:16:26.607Z,1732
2016-11-08T09:17:26.475Z,1696
2016-11-08T09:18:26.342Z,1672
2016-11-08T09:19:27.692Z,1628
2016-11-08T09:20:41.194Z,1596
2016-11-08T09:21:42.364Z,1532
2016-11-08T09:22:26.415Z,1472
2016-11-08T09:23:31.189Z,1316
2016-11-08T09:24:27.598Z,1248
2016-11-08T09:25:26.769Z,1268
2016-11-08T09:26:27.283Z,1368
2016-11-08T09:28:27.026Z,1608
2016-11-08T09:29:26.490Z,1620
2016-11-08T09:30:26.454Z,1628
2016-11-08T09:31:26.472Z,1748
2016-11-08T09:32:41.402Z,1824
2016-11-08T09:34:26.580Z,2132
2016-11-08T09:35:26.567Z,2216
2016-11-08T09:36:43.125Z,2260
2016-11-08T09:37:28.535Z,2364
2016-11-08T09:38:27.649Z,2412
2016-11-08T09:39:26.964Z,2416
2016-11-08T09:40:27.532Z,2572
2016-11-08T09:41:26.654Z,3000
2016-11-08T09:42:27.615Z,3276
2016-11-08T09:43:41.750Z,3436
2016-11-08T09:44:42.417Z,3664
2016-11-08T09:45:57.206Z,3384
2016-11-08T09:46:26.935Z,2960
2016-11-08T09:47:41.866Z,2700
2016-11-08T09:48:27.677Z,2828
2016-11-08T09:50:27.120Z,2304
2016-11-08T09:51:28.310Z,2220
2016-11-08T09:52:26.902Z,1904
2016-11-08T09:53:27.008Z,1872
2016-11-08T09:54:33.193Z,2060
2016-11-08T09:55:42.867Z,2168
2016-11-08T09:56:27.215Z,1992
2016-11-08T09:57:28.775Z,1976
2016-11-08T09:58:28.150Z,2224
2016-11-08T09:59:30.479Z,2236
2016-11-08T10:00:44.059Z,1968
2016-11-08T10:01:27.555Z,1848
2016-11-08T10:02:29.329Z,1828
2016-11-08T10:03:43.009Z,1900
2016-11-08T10:04:27.164Z,2056
2016-11-08T10:05:28.682Z,2132
2016-11-08T10:06:27.137Z,2256
2016-11-08T10:07:27.111Z,2368
2016-11-08T10:08:56.961Z,2912
2016-11-08T10:09:27.352Z,3228
2016-11-08T10:10:27.223Z,3136
2016-11-08T10:11:27.190Z,2920
2016-11-08T10:13:27.261Z,3412
2016-11-08T10:14:27.244Z,4240
2016-11-08T10:15:27.261Z,4556
2016-11-08T10:16:27.275Z,4324
2016-11-08T10:17:27.293Z,3628
2016-11-08T10:18:27.311Z,3792
2016-11-08T10:19:27.377Z,4040
2016-11-08T10:20:27.354Z,3668
2016-11-08T10:21:27.366Z,3300
2016-11-08T10:23:27.401Z,3244
2016-11-08T10:24:42.366Z,2840
2016-11-08T10:26:42.368Z,2136
2016-11-08T10:27:27.474Z,2060
2016-11-08T10:28:27.493Z,2128
2016-11-08T10:29:27.610Z,2384
2016-11-08T10:30:27.529Z,2496
2016-11-08T10:31:27.548Z,2576
2016-11-08T10:32:42.479Z,2348
2016-11-08T10:33:27.587Z,2356
2016-11-08T10:34:27.608Z,2224
2016-11-08T10:35:27.623Z,2388
2016-11-08T10:36:27.641Z,2596
2016-11-08T10:37:42.575Z,2852
2016-11-08T10:38:27.676Z,3256
2016-11-08T10:39:27.701Z,3284
2016-11-08T10:40:42.630Z,3016
2016-11-08T10:41:27.733Z,2900
2016-11-08T10:42:27.755Z,2880
2016-11-08T10:43:27.776Z,2688
2016-11-08T10:44:28.439Z,2672
2016-11-08T10:45:27.806Z,2856
2016-11-08T10:46:27.868Z,2608
2016-11-08T10:47:27.845Z,2364
2016-11-08T10:48:27.864Z,2060
2016-11-08T10:50:27.899Z,2716
2016-11-08T10:51:27.925Z,2660
2016-11-08T10:52:27.938Z,2560
2016-11-08T10:53:42.870Z,2304
2016-11-08T10:54:27.976Z,2056
2016-11-08T10:55:42.905Z,1828
2016-11-08T10:56:42.927Z,1744
2016-11-08T10:57:42.941Z,1628
2016-11-08T10:58:28.060Z,1484
2016-11-08T10:59:28.068Z,1384
2016-11-08T11:00:28.085Z,1452
2016-11-08T11:01:43.045Z,1748
2016-11-08T11:02:28.122Z,1736
2016-11-08T11:03:28.738Z,1728
2016-11-08T11:04:43.076Z,1780
2016-11-08T11:05:28.187Z,1844
2016-11-08T11:06:28.203Z,1940
2016-11-08T11:07:43.135Z,2184
2016-11-08T11:08:28.236Z,2312
2016-11-08T11:09:28.265Z,2492
2016-11-08T11:10:43.189Z,2608
2016-11-08T11:11:43.525Z,2640
2016-11-08T11:12:28.310Z,2652
2016-11-08T11:13:28.334Z,2724
2016-11-08T11:14:28.353Z,2748
2016-11-08T11:15:28.366Z,2712
2016-11-08T11:16:43.304Z,2696
2016-11-08T11:17:43.323Z,2660
2016-11-08T11:18:28.419Z,2628
2016-11-08T11:19:28.446Z,2636
2016-11-08T11:20:28.459Z,2720
2016-11-08T11:21:28.482Z,2784
2016-11-08T11:22:28.502Z,2832
2016-11-08T11:24:28.538Z,2768
2016-11-08T11:25:43.473Z,2596
2016-11-08T11:28:28.616Z,2132
2016-11-08T11:29:28.631Z,1932
2016-11-08T11:30:28.655Z,1800
2016-11-08T11:31:28.669Z,1776
2016-11-08T11:32:28.699Z,1776
2016-11-08T11:33:28.710Z,1748
2016-11-08T11:34:43.641Z,1696
2016-11-08T11:35:43.665Z,1540
2016-11-08T11:36:28.764Z,1540
2016-11-08T11:37:28.785Z,1672
2016-11-08T11:38:28.805Z,1748
2016-11-08T11:39:28.823Z,1876
2016-11-08T11:40:43.756Z,1952
2016-11-08T11:41:28.857Z,2024
2016-11-08T11:42:28.977Z,2284
2016-11-08T11:43:43.809Z,2348
2016-11-08T11:44:28.911Z,2144
2016-11-08T11:45:28.938Z,1800
2016-11-08T11:47:29.025Z,1352
2016-11-08T11:48:29.240Z,1368
2016-11-08T11:49:29.046Z,1252
2016-11-08T11:50:29.024Z,1260
2016-11-08T11:51:29.052Z,1452
2016-11-08T11:52:29.067Z,1572
2016-11-08T11:53:29.087Z,1496
2016-11-08T11:54:29.110Z,1472
2016-11-08T11:55:29.125Z,1372
2016-11-08T11:57:29.155Z,1284
2016-11-08T11:58:29.181Z,1404
2016-11-08T11:59:44.115Z,1440
2016-11-08T12:00:29.273Z,1384
2016-11-08T12:01:29.239Z,1320
2016-11-08T12:02:30.804Z,1248
2016-11-08T12:04:29.291Z,1224
2016-11-08T12:05:29.318Z,1368
2016-11-08T12:06:44.246Z,1588
2016-11-08T12:07:29.345Z,1716
2016-11-08T12:08:29.365Z,1860
2016-11-08T12:09:29.634Z,1960
2016-11-08T12:10:29.660Z,2316
2016-11-08T12:11:29.423Z,2672
2016-11-08T12:12:29.503Z,2648
2016-11-08T12:13:29.715Z,2404
2016-11-08T12:14:29.483Z,1952
2016-11-08T12:15:44.413Z,1800
2016-11-08T12:16:29.528Z,1984
2016-11-08T12:17:29.542Z,2332
2016-11-08T12:18:29.562Z,2628
2016-11-08T12:19:29.576Z,2752
2016-11-08T12:20:29.594Z,2760
2016-11-08T12:21:44.531Z,2640
2016-11-08T12:22:44.555Z,2404
2016-11-08T12:23:31.055Z,2396
2016-11-08T12:24:29.762Z,2704
2016-11-08T12:25:29.695Z,3176
2016-11-08T12:26:29.710Z,3404
2016-11-08T12:27:29.726Z,3480
2016-11-08T12:28:29.748Z,3756
2016-11-08T12:29:29.778Z,3900
2016-11-08T12:30:29.785Z,3832
2016-11-08T12:31:59.635Z,3672
2016-11-08T12:33:29.844Z,3592
2016-11-08T12:34:29.864Z,3244
2016-11-08T12:35:29.883Z,3236
2016-11-08T12:36:29.897Z,3252
2016-11-08T12:37:29.914Z,3168
2016-11-08T12:38:45.007Z,2972
2016-11-08T12:39:29.962Z,2944
2016-11-08T12:40:29.989Z,2976
2016-11-08T12:41:29.998Z,2944
2016-11-08T12:42:30.207Z,2980
2016-11-08T12:43:30.040Z,2908
2016-11-08T12:44:30.052Z,2772
2016-11-08T12:45:30.072Z,2556
2016-11-08T12:46:45.010Z,2236
2016-11-08T12:47:45.027Z,2036
2016-11-08T12:48:30.234Z,2024
2016-11-08T12:49:30.161Z,1948
2016-11-08T12:50:45.092Z,1876
2016-11-08T12:51:30.276Z,1864
2016-11-08T12:52:45.126Z,1860
2016-11-08T12:53:30.235Z,1936
2016-11-08T12:54:30.247Z,2040
2016-11-08T12:55:30.267Z,2136
2016-11-08T12:56:30.289Z,2144
2016-11-08T12:57:30.304Z,2140
2016-11-08T12:58:30.364Z,2128
2016-11-08T12:59:45.582Z,2064
2016-11-08T13:00:30.425Z,2000
2016-11-08T13:01:30.390Z,1980
2016-11-08T13:02:30.711Z,1984
2016-11-08T13:03:30.446Z,1956
2016-11-08T13:04:30.747Z,1952
2016-11-08T13:05:30.464Z,1912
2016-11-08T13:06:30.482Z,1848
2016-11-08T13:07:30.500Z,1768
2016-11-08T13:08:30.520Z,1668
2016-11-08T13:09:30.535Z,1620
2016-11-08T13:10:30.606Z,1580
2016-11-08T13:11:30.628Z,1592
2016-11-08T13:12:30.745Z,1624
2016-11-08T13:13:30.647Z,1612
2016-11-08T13:14:30.922Z,1436
2016-11-08T13:15:45.569Z,1424
2016-11-08T13:16:30.719Z,1476
2016-11-08T13:17:30.698Z,1440
2016-11-08T13:18:46.127Z,1360
2016-11-08T13:19:32.999Z,1364
2016-11-08T13:20:30.755Z,1308
2016-11-08T13:21:30.809Z,1160
2016-11-08T13:22:30.936Z,1008
2016-11-08T13:23:30.861Z,900
2016-11-08T13:24:30.927Z,796
2016-11-08T13:25:30.844Z,772
2016-11-08T13:26:30.962Z,848
2016-11-08T13:27:30.938Z,980
2016-11-08T13:28:45.815Z,1104
2016-11-08T13:29:45.936Z,1148
2016-11-08T13:30:31.342Z,1204
2016-11-08T13:31:31.016Z,1184
2016-11-08T13:32:30.977Z,1088
2016-11-08T13:33:31.103Z,1100
2016-11-08T13:35:00.847Z,1048
2016-11-08T13:35:31.074Z,1000
2016-11-08T13:36:31.048Z,1032
2016-11-08T13:37:36.015Z,1084
2016-11-08T13:39:31.115Z,1120
2016-11-08T13:40:46.050Z,1172
2016-11-08T13:41:46.714Z,1124
2016-11-08T13:42:31.167Z,1044
2016-11-08T13:43:31.197Z,944
2016-11-08T13:45:31.227Z,876
2016-11-08T13:46:33.648Z,908
2016-11-08T13:47:46.479Z,896
2016-11-08T13:48:31.582Z,868
2016-11-08T13:49:31.648Z,832
2016-11-08T13:50:48.289Z,780
2016-11-08T13:51:31.817Z,760
2016-11-08T13:53:34.734Z,632
2016-11-08T13:54:31.454Z,560
2016-11-08T13:56:31.438Z,580
2016-11-08T13:57:31.458Z,596
2016-11-08T13:58:33.228Z,604
2016-11-08T13:59:31.493Z,612
2016-11-08T14:00:32.668Z,652
2016-11-08T14:01:31.534Z,696
2016-11-08T14:02:46.518Z,776
2016-11-08T14:03:31.572Z,824
2016-11-08T14:04:31.585Z,900
2016-11-08T14:05:33.918Z,972
2016-11-08T14:07:01.654Z,1068
2016-11-08T14:07:31.748Z,1096
2016-11-08T14:08:32.417Z,1168
2016-11-08T14:09:32.490Z,1216
2016-11-08T14:10:31.850Z,1212
2016-11-08T14:11:32.174Z,1144
2016-11-08T14:12:34.044Z,1056
2016-11-08T14:13:32.410Z,952
2016-11-08T14:14:32.431Z,836
2016-11-08T14:15:33.650Z,752
2016-11-08T14:17:46.851Z,564
2016-11-08T14:18:47.622Z,524
2016-11-08T14:19:32.076Z,516
2016-11-08T14:20:31.896Z,524
2016-11-08T14:22:02.390Z,556
2016-11-08T14:22:31.980Z,560
2016-11-08T14:23:33.191Z,560
2016-11-08T14:24:31.969Z,536
2016-11-08T14:26:32.006Z,500
2016-11-08T14:27:32.025Z,484
2016-11-08T14:28:32.043Z,464
2016-11-08T14:29:33.914Z,432
2016-11-08T14:30:33.681Z,392
2016-11-08T14:31:32.407Z,372
2016-11-08T14:32:32.273Z,344
2016-11-08T14:33:32.295Z,336
2016-11-08T14:34:47.825Z,336
2016-11-08T14:35:33.975Z,340
2016-11-08T14:36:32.696Z,352
2016-11-08T14:37:32.712Z,352
2016-11-08T14:38:48.298Z,352
2016-11-08T14:39:32.299Z,352
2016-11-08T14:40:32.532Z,336
2016-11-08T14:41:32.640Z,316
2016-11-08T14:42:34.613Z,296
2016-11-08T14:43:36.232Z,276
2016-11-08T14:44:48.612Z,260
2016-11-08T14:45:47.881Z,256
2016-11-08T14:46:32.686Z,256
2016-11-08T14:47:32.605Z,260
2016-11-08T14:48:32.768Z,248
2016-11-08T14:49:33.192Z,240
2016-11-08T14:50:48.771Z,256
2016-11-08T14:51:33.129Z,272
2016-11-08T14:52:36.549Z,308
2016-11-08T14:53:47.480Z,316
2016-11-08T14:54:32.794Z,308
2016-11-08T14:56:32.674Z,268
2016-11-08T14:57:34.345Z,236
2016-11-08T14:58:33.263Z,232
2016-11-08T14:59:32.733Z,244
2016-11-08T15:00:32.750Z,236
2016-11-08T15:01:33.568Z,212
2016-11-08T15:02:47.794Z,168
2016-11-08T15:03:32.849Z,156
2016-11-08T15:04:34.872Z,120
2016-11-08T15:05:32.936Z,100
2016-11-08T15:06:32.753Z,80
2016-11-08T15:07:32.925Z,72
2016-11-08T15:08:32.801Z,64
2016-11-08T15:09:47.732Z,56